Time;durP1;ratioP1;P1;durP2;ratioP2;P2;SDS_P1;SDS_P2;PMS_P1;PMS_P2;Temp;Humidity;BMP_temperature;BMP_pressure;BME280_temperature;BME280_humidity;BME280_pressure;Samples;Min_cycle;Max_cycle;Signal;HPM_P1;HPM_P2
2022/06/08 00:00:33;;;;;;;0.00;0.00;;;14.90;99.90;;;;;;5034737;28;20029;-75
2022/06/08 00:03:08;;;;;;;0.10;0.10;;;15.00;99.90;;;;;;5052742;28;20056;-74
2022/06/08 00:05:34;;;;;;;0.10;0.10;;;14.90;99.90;;;;;;5034705;28;20021;-75
2022/06/08 00:08:00;;;;;;;0.00;0.00;;;14.90;99.90;;;;;;5052433;28;20104;-75
2022/06/08 00:10:26;;;;;;;0.10;0.10;;;14.90;99.90;;;;;;5052520;28;20021;-75
2022/06/08 00:12:51;;;;;;;0.00;0.00;;;14.90;99.90;;;;;;5052490;28;20072;-75
2022/06/08 00:15:17;;;;;;;0.10;0.10;;;15.00;99.90;;;;;;5034682;28;20067;-75
2022/06/08 00:17:43;;;;;;;0.40;0.40;;;15.00;99.90;;;;;;5052080;28;20048;-74
2022/06/08 00:20:10;;;;;;;0.00;0.00;;;15.10;99.90;;;;;;5052500;28;20090;-74
2022/06/08 00:22:37;;;;;;;0.00;0.00;;;15.10;99.90;;;;;;5052387;28;20024;-74
2022/06/08 00:25:04;;;;;;;0.10;0.10;;;15.00;99.90;;;;;;5052150;28;20025;-74
2022/06/08 00:27:30;;;;;;;0.00;0.00;;;14.80;99.90;;;;;;5052136;28;20090;-74
2022/06/08 00:29:56;;;;;;;0.10;0.10;;;14.80;99.90;;;;;;5052208;28;20025;-74
2022/06/08 00:32:21;;;;;;;0.45;0.25;;;14.60;99.90;;;;;;5034523;28;20029;-74
2022/06/08 00:34:47;;;;;;;0.10;0.10;;;14.50;99.90;;;;;;5034491;28;20025;-75
2022/06/08 00:37:13;;;;;;;0.00;0.00;;;14.50;99.90;;;;;;5051959;28;20033;-73
2022/06/08 00:39:39;;;;;;;0.10;0.10;;;14.50;99.90;;;;;;5051972;28;20158;-73
2022/06/08 00:42:08;;;;;;;0.08;0.08;;;14.60;99.90;;;;;;5034419;28;20032;-73
2022/06/08 00:44:47;;;;;;;0.00;0.00;;;14.50;99.90;;;;;;5034331;28;20561;-73
2022/06/08 00:47:18;;;;;;;0.10;0.10;;;14.40;99.90;;;;;;5034156;28;20052;-73
2022/06/08 00:49:56;;;;;;;0.10;0.10;;;14.50;99.90;;;;;;5033840;28;20502;-73
2022/06/08 00:52:23;;;;;;;0.00;0.00;;;14.60;99.90;;;;;;5051755;28;20036;-73
2022/06/08 00:54:57;;;;;;;1.10;0.20;;;14.60;99.90;;;;;;5051857;28;20377;-73
2022/06/08 00:57:29;;;;;;;0.08;0.08;;;14.60;99.90;;;;;;5051928;28;20100;-73
2022/06/08 01:00:02;;;;;;;0.10;0.10;;;14.60;99.90;;;;;;5051854;28;20048;-73
2022/06/08 01:02:28;;;;;;;0.03;0.03;;;14.40;99.90;;;;;;5051860;28;20025;-73
2022/06/08 01:05:20;;;;;;;0.00;0.00;;;14.40;99.90;;;;;;5051956;28;20047;-73
2022/06/08 01:07:48;;;;;;;0.00;0.00;;;14.40;99.90;;;;;;5033752;28;20515;-73
2022/06/08 01:10:17;;;;;;;0.00;0.00;;;14.40;99.90;;;;;;5034061;28;20028;-73
2022/06/08 01:12:44;;;;;;;0.10;0.10;;;14.40;99.90;;;;;;5051947;28;20090;-73
2022/06/08 01:15:12;;;;;;;0.10;0.10;;;14.40;99.90;;;;;;5051802;28;20116;-73
2022/06/08 01:17:38;;;;;;;0.00;0.00;;;14.60;99.90;;;;;;5051207;28;20036;-73
2022/06/08 01:20:05;;;;;;;0.20;0.20;;;14.60;99.90;;;;;;5051684;28;20024;-73
2022/06/08 01:22:31;;;;;;;0.10;0.10;;;14.60;99.90;;;;;;5034007;28;20075;-73
2022/06/08 01:24:56;;;;;;;0.10;0.10;;;14.50;99.90;;;;;;5051752;28;20029;-73
2022/06/08 01:27:29;;;;;;;0.10;0.10;;;14.50;99.90;;;;;;5051428;28;20029;-73
2022/06/08 01:29:58;;;;;;;0.00;0.00;;;14.40;99.90;;;;;;5051622;28;20075;-73
2022/06/08 01:32:40;;;;;;;0.10;0.10;;;14.30;99.90;;;;;;5033785;28;20057;-73
2022/06/08 01:35:15;;;;;;;0.10;0.10;;;14.20;99.90;;;;;;5051752;28;20048;-73
2022/06/08 01:38:18;;;;;;;0.00;0.00;;;14.10;99.90;;;;;;5051303;28;20025;-73
2022/06/08 01:41:11;;;;;;;0.03;0.03;;;14.00;99.90;;;;;;5051435;28;20029;-72
2022/06/08 01:43:44;;;;;;;0.10;0.10;;;14.00;99.90;;;;;;5051549;28;20021;-73
2022/06/08 01:46:25;;;;;;;0.47;0.22;;;14.10;99.90;;;;;;5051440;28;20017;-73
2022/06/08 01:49:03;;;;;;;0.10;0.10;;;14.00;99.90;;;;;;5033600;28;20033;-73
2022/06/08 01:51:34;;;;;;;0.10;0.10;;;14.10;99.90;;;;;;5051476;28;20361;-73
2022/06/08 01:54:06;;;;;;;0.10;0.10;;;14.10;99.90;;;;;;5051392;28;20033;-73
2022/06/08 01:56:44;;;;;;;0.40;0.40;;;14.20;99.90;;;;;;5051185;28;20148;-73
2022/06/08 01:59:16;;;;;;;0.00;0.00;;;14.20;99.90;;;;;;5051398;28;20032;-73
2022/06/08 02:01:52;;;;;;;0.10;0.10;;;14.20;99.90;;;;;;5034388;28;20021;-73
2022/06/08 02:04:43;;;;;;;0.00;0.00;;;14.20;99.90;;;;;;5037108;28;20070;-73
2022/06/08 02:07:33;;;;;;;0.00;0.00;;;14.20;99.90;;;;;;5036946;28;20075;-74
2022/06/08 02:10:35;;;;;;;0.10;0.10;;;14.40;99.90;;;;;;5054861;28;20068;-73
2022/06/08 02:13:06;;;;;;;;;;;14.30;99.90;;;;;;5042173;28;20507;-73
2022/06/08 02:15:40;;;;;;;0.00;0.00;;;14.40;99.90;;;;;;5054809;28;19912;-73
2022/06/08 02:18:35;;;;;;;0.10;0.10;;;14.60;99.90;;;;;;5036343;28;20116;-73
2022/06/08 02:21:42;;;;;;;0.00;0.00;;;14.40;99.90;;;;;;5043792;28;20511;-73
2022/06/08 02:24:19;;;;;;;0.10;0.10;;;14.50;99.90;;;;;;4973606;28;20019;-73
2022/06/08 02:26:57;;;;;;;0.00;0.00;;;14.50;99.90;;;;;;5012979;28;20064;-74
2022/06/08 02:29:31;;;;;;;0.10;0.10;;;14.60;99.90;;;;;;5054390;28;20527;-73
2022/06/08 02:35:01;;;;;;;0.05;0.05;;;14.50;99.90;;;;;;5054524;28;20028;-73
2022/06/08 02:37:32;;;;;;;0.10;0.10;;;14.60;99.90;;;;;;5054048;28;20029;-73
2022/06/08 02:40:12;;;;;;;0.10;0.10;;;14.80;99.90;;;;;;5054511;28;20017;-73
2022/06/08 02:42:49;;;;;;;0.10;0.10;;;14.80;99.90;;;;;;5054272;28;20492;-73
2022/06/08 02:45:17;;;;;;;0.00;0.00;;;14.80;99.90;;;;;;5054328;28;20020;-73
2022/06/08 02:47:45;;;;;;;0.00;0.00;;;14.80;99.90;;;;;;5053992;28;20017;-73
2022/06/08 02:50:18;;;;;;;0.10;0.10;;;14.80;99.90;;;;;;5054084;28;20025;-73
2022/06/08 02:52:46;;;;;;;0.10;0.10;;;14.80;99.90;;;;;;5036198;28;20053;-73
2022/06/08 02:55:29;;;;;;;0.05;0.05;;;14.60;99.90;;;;;;5053415;28;20032;-73
2022/06/08 02:58:16;;;;;;;0.10;0.10;;;14.50;99.90;;;;;;5052785;28;20036;-73
2022/06/08 03:00:50;;;;;;;0.03;0.03;;;14.60;99.90;;;;;;5034854;28;20035;-73
2022/06/08 03:03:23;;;;;;;0.00;0.00;;;14.50;99.90;;;;;;5052992;28;20021;-73
2022/06/08 03:05:58;;;;;;;0.30;0.30;;;14.50;99.90;;;;;;5035046;28;20032;-73
2022/06/08 03:08:27;;;;;;;0.10;0.10;;;14.60;99.90;;;;;;5052566;28;20025;-73
2022/06/08 03:10:53;;;;;;;0.00;0.00;;;14.60;99.90;;;;;;5052628;28;20380;-73
2022/06/08 03:13:28;;;;;;;0.00;0.00;;;14.40;99.90;;;;;;5033989;28;20083;-73
2022/06/08 03:15:57;;;;;;;0.10;0.10;;;14.30;99.90;;;;;;5052652;28;20090;-73
2022/06/08 03:18:24;;;;;;;0.10;0.10;;;14.50;99.90;;;;;;5052381;28;20481;-73
2022/06/08 03:20:50;;;;;;;0.10;0.10;;;14.40;99.90;;;;;;5052435;28;20527;-73
2022/06/08 03:23:17;;;;;;;0.08;0.08;;;14.40;99.90;;;;;;5052493;28;20013;-73
2022/06/08 03:25:43;;;;;;;0.20;0.10;;;14.50;99.90;;;;;;5052432;28;20025;-73
2022/06/08 03:28:12;;;;;;;0.10;0.10;;;14.60;99.90;;;;;;5052275;28;20381;-73
2022/06/08 03:30:38;;;;;;;0.03;0.03;;;14.60;99.90;;;;;;5052424;28;20017;-73
2022/06/08 03:33:04;;;;;;;0.10;0.10;;;14.60;99.90;;;;;;5018087;28;20545;-73
2022/06/08 03:35:30;;;;;;;0.00;0.00;;;14.70;99.90;;;;;;5052780;28;20025;-73
2022/06/08 03:37:56;;;;;;;0.05;0.05;;;14.80;99.90;;;;;;5052009;28;20029;-73
2022/06/08 03:40:21;;;;;;;0.08;0.08;;;14.90;99.90;;;;;;5052346;28;20024;-73
2022/06/08 03:42:47;;;;;;;0.08;0.08;;;14.90;99.90;;;;;;5034511;28;20020;-73
2022/06/08 03:45:13;;;;;;;0.03;0.03;;;14.80;99.90;;;;;;5052196;28;20025;-73
2022/06/08 03:47:43;;;;;;;0.00;0.00;;;14.90;99.90;;;;;;5051887;28;20397;-73
2022/06/08 03:50:13;;;;;;;0.13;0.13;;;14.90;99.90;;;;;;5034328;28;20086;-73
2022/06/08 03:52:46;;;;;;;0.10;0.10;;;15.00;99.90;;;;;;5052006;28;20102;-73
2022/06/08 03:55:15;;;;;;;0.10;0.10;;;15.00;99.90;;;;;;4996781;28;1087659;-73
2022/06/08 03:57:45;;;;;;;0.08;0.08;;;15.00;99.90;;;;;;5034881;28;20400;-73
2022/06/08 04:00:12;;;;;;;0.10;0.10;;;15.00;99.90;;;;;;5052729;28;20029;-73
2022/06/08 04:02:39;;;;;;;0.15;0.15;;;14.90;99.90;;;;;;5052568;28;20024;-73
2022/06/08 04:05:05;;;;;;;0.03;0.03;;;14.80;99.90;;;;;;5052690;28;20100;-73
2022/06/08 04:07:32;;;;;;;0.05;0.05;;;14.60;99.90;;;;;;5052450;28;20020;-73
2022/06/08 04:09:59;;;;;;;0.00;0.00;;;14.50;99.90;;;;;;5034775;28;20056;-73
2022/06/08 04:12:25;;;;;;;0.10;0.10;;;14.40;99.90;;;;;;5052574;28;20524;-72
2022/06/08 04:14:52;;;;;;;0.10;0.10;;;14.40;99.90;;;;;;5052519;28;20365;-73
2022/06/08 04:17:18;;;;;;;0.20;0.20;;;14.20;99.90;;;;;;5051968;28;20029;-74
2022/06/08 04:19:47;;;;;;;0.03;0.03;;;14.00;99.90;;;;;;5034423;28;20376;-72
2022/06/08 04:22:17;;;;;;;0.10;0.10;;;13.90;99.90;;;;;;5052393;28;20033;-72
2022/06/08 04:24:44;;;;;;;0.10;0.10;;;14.00;99.90;;;;;;5052236;28;20079;-72
2022/06/08 04:27:11;;;;;;;0.10;0.10;;;14.00;99.90;;;;;;5033750;28;20057;-72
2022/06/08 04:29:37;;;;;;;0.08;0.08;;;14.00;99.90;;;;;;5033947;28;20036;-72
2022/06/08 04:32:06;;;;;;;0.10;0.10;;;14.00;99.90;;;;;;5051872;28;20071;-72
2022/06/08 04:34:31;;;;;;;0.15;0.15;;;14.10;99.90;;;;;;5034395;28;20027;-72
2022/06/08 04:36:57;;;;;;;0.47;0.47;;;14.20;99.90;;;;;;5033666;28;20020;-72
2022/06/08 04:39:43;;;;;;;0.10;0.10;;;14.30;99.90;;;;;;5037042;28;20037;-74
2022/06/08 04:42:09;;;;;;;0.08;0.08;;;14.40;99.90;;;;;;5034332;28;20082;-72
2022/06/08 04:44:36;;;;;;;0.05;0.05;;;14.40;99.90;;;;;;5051949;28;20025;-72
2022/06/08 04:47:02;;;;;;;0.10;0.10;;;14.40;99.90;;;;;;5051816;28;20216;-73
2022/06/08 04:49:28;;;;;;;0.10;0.10;;;14.70;99.90;;;;;;5051875;28;20440;-73
2022/06/08 04:51:54;;;;;;;0.10;0.10;;;14.80;99.90;;;;;;5051889;28;20052;-73
2022/06/08 04:54:19;;;;;;;0.10;0.10;;;15.10;99.90;;;;;;5051643;28;20029;-72
2022/06/08 04:56:46;;;;;;;0.08;0.08;;;15.20;99.90;;;;;;5067891;23;20047;-78
2022/06/08 04:59:11;;;;;;;0.10;0.10;;;15.30;99.90;;;;;;5039139;28;20472;-78
2022/06/08 05:01:37;;;;;;;0.10;0.10;;;15.40;99.90;;;;;;5024170;28;20120;-78
2022/06/08 05:04:03;;;;;;;0.00;0.00;;;15.40;99.90;;;;;;5062267;28;20472;-77
2022/06/08 05:06:28;;;;;;;0.10;0.10;;;15.50;99.90;;;;;;5039938;28;20063;-77
2022/06/08 05:08:54;;;;;;;0.10;0.10;;;15.50;99.90;;;;;;5062638;28;20028;-77
2022/06/08 05:11:20;;;;;;;0.10;0.10;;;15.50;99.90;;;;;;5052893;28;20025;-78
2022/06/08 05:13:46;;;;;;;0.03;0.03;;;15.40;99.90;;;;;;5055692;28;20071;-78
2022/06/08 05:16:12;;;;;;;0.10;0.10;;;15.40;99.90;;;;;;5038779;28;20021;-78
2022/06/08 05:18:38;;;;;;;0.10;0.10;;;15.40;99.90;;;;;;5068099;28;20039;-77
2022/06/08 05:21:04;;;;;;;0.05;0.05;;;15.50;99.90;;;;;;5077384;28;20024;-77
2022/06/08 05:23:35;;;;;;;0.10;0.10;;;15.60;99.90;;;;;;5059092;28;20029;-77
2022/06/08 05:26:02;;;;;;;0.00;0.00;;;15.50;99.90;;;;;;5076551;28;20083;-78
2022/06/08 05:28:28;;;;;;;0.10;0.10;;;15.60;99.90;;;;;;5043632;28;20299;-77
2022/06/08 05:30:56;;;;;;;0.10;0.10;;;15.50;99.90;;;;;;5056509;28;20029;-77
2022/06/08 05:33:24;;;;;;;0.10;0.10;;;15.60;99.90;;;;;;5038430;28;20036;-78
2022/06/08 05:35:49;;;;;;;0.03;0.03;;;15.50;99.90;;;;;;5069934;28;20052;-78
2022/06/08 05:38:15;;;;;;;0.10;0.10;;;15.60;99.90;;;;;;5060681;28;20027;-77
2022/06/08 05:40:41;;;;;;;0.10;0.10;;;15.70;99.90;;;;;;5079300;28;20028;-77
2022/06/08 05:43:10;;;;;;;0.10;0.10;;;15.90;99.90;;;;;;5049654;28;20017;-78
2022/06/08 05:45:36;;;;;;;0.10;0.10;;;16.00;99.90;;;;;;5059531;28;20096;-77
2022/06/08 05:48:04;;;;;;;0.00;0.00;;;16.10;99.90;;;;;;5041587;28;20021;-77
2022/06/08 05:50:30;;;;;;;0.20;0.20;;;16.20;99.90;;;;;;5059230;28;20032;-77
2022/06/08 05:52:57;;;;;;;0.08;0.08;;;16.30;99.90;;;;;;5041570;28;20101;-77
2022/06/08 05:55:23;;;;;;;0.10;0.10;;;16.30;99.90;;;;;;5040986;28;20481;-77
2022/06/08 05:57:51;;;;;;;0.10;0.10;;;16.40;99.90;;;;;;5058004;28;20496;-72
2022/06/08 06:00:23;;;;;;;0.03;0.03;;;16.60;99.90;;;;;;5039985;28;20083;-77
2022/06/08 06:02:50;;;;;;;0.25;0.25;;;16.70;99.90;;;;;;5040086;28;20020;-77
2022/06/08 06:05:18;;;;;;;0.03;0.03;;;16.80;99.90;;;;;;5041583;28;20032;-77
2022/06/08 06:07:45;;;;;;;0.20;0.20;;;16.90;99.90;;;;;;5060937;28;20382;-78
2022/06/08 06:10:13;;;;;;;0.10;0.10;;;17.00;99.90;;;;;;5061550;28;20032;-77
2022/06/08 06:12:39;;;;;;;0.10;0.10;;;17.00;99.90;;;;;;5041985;28;20029;-77
2022/06/08 06:15:06;;;;;;;0.10;0.10;;;17.10;99.90;;;;;;5042817;28;20036;-77
2022/06/08 06:17:32;;;;;;;0.10;0.10;;;17.00;99.90;;;;;;5041958;28;20031;-77
2022/06/08 06:19:58;;;;;;;0.05;0.05;;;17.10;99.90;;;;;;5047808;28;20088;-79
2022/06/08 06:22:25;;;;;;;0.00;0.00;;;17.30;99.90;;;;;;5072903;28;20032;-79
2022/06/08 06:24:51;;;;;;;0.00;0.00;;;17.50;99.90;;;;;;5060567;28;20123;-79
2022/06/08 06:27:17;;;;;;;0.00;0.00;;;17.70;99.90;;;;;;5070270;28;20076;-79
2022/06/08 06:29:42;;;;;;;0.20;0.20;;;17.90;99.90;;;;;;5039170;28;20025;-78
2022/06/08 06:32:17;;;;;;;0.10;0.10;;;17.80;99.90;;;;;;5068014;28;20463;-79
2022/06/08 06:34:43;;;;;;;0.10;0.10;;;17.60;99.90;;;;;;5049993;28;20023;-78
2022/06/08 06:37:09;;;;;;;0.10;0.10;;;17.60;99.90;;;;;;5033834;28;20021;-78
2022/06/08 06:39:35;;;;;;;0.10;0.10;;;17.70;99.90;;;;;;5067857;28;20017;-78
2022/06/08 06:42:01;;;;;;;0.10;0.10;;;17.90;99.90;;;;;;5049894;28;20060;-79
2022/06/08 06:44:26;;;;;;;0.00;0.00;;;18.20;99.90;;;;;;5058765;28;20067;-79
2022/06/08 06:46:52;;;;;;;0.10;0.10;;;18.40;99.90;;;;;;5063196;28;20331;-79
2022/06/08 06:49:19;;;;;;;0.10;0.10;;;18.50;99.90;;;;;;5068396;28;20025;-78
2022/06/08 06:51:45;;;;;;;0.10;0.10;;;18.50;99.90;;;;;;5051645;28;20071;-78
2022/06/08 06:54:12;;;;;;;0.08;0.08;;;18.50;99.90;;;;;;5058924;28;20021;-76
2022/06/08 06:56:38;;;;;;;0.10;0.10;;;18.60;99.90;;;;;;5035685;28;20028;-76
2022/06/08 06:59:04;;;;;;;0.10;0.10;;;18.70;99.90;;;;;;5061626;28;20036;-76
2022/06/08 07:01:31;;;;;;;0.10;0.10;;;18.90;99.90;;;;;;5055998;28;20024;-76
2022/06/08 07:03:57;;;;;;;0.05;0.05;;;19.00;99.90;;;;;;5063589;28;20430;-76
2022/06/08 07:06:23;;;;;;;0.10;0.10;;;19.00;99.90;;;;;;5035639;28;20020;-76
2022/06/08 07:08:49;;;;;;;0.10;0.10;;;19.10;99.90;;;;;;5035853;28;20047;-76
2022/06/08 07:14:04;;;;;;;0.10;0.10;;;19.10;99.90;;;;;;5054549;28;20032;-75
2022/06/08 07:16:31;;;;;;;0.05;0.05;;;18.90;99.90;;;;;;5057468;28;20029;-76
2022/06/08 07:18:57;;;;;;;0.10;0.10;;;19.10;99.90;;;;;;5061368;28;20451;-76
2022/06/08 07:21:23;;;;;;;0.10;0.10;;;19.20;99.90;;;;;;5073373;28;20104;-76
2022/06/08 07:23:49;;;;;;;0.15;0.15;;;19.40;99.90;;;;;;5055483;28;20055;-74
2022/06/08 07:26:14;;;;;;;0.00;0.00;;;19.20;99.90;;;;;;5054396;28;20078;-76
2022/06/08 07:28:40;;;;;;;0.10;0.10;;;19.00;99.90;;;;;;5073073;28;20025;-76
2022/06/08 07:31:06;;;;;;;0.10;0.10;;;18.80;99.90;;;;;;5073072;28;20024;-76
2022/06/08 07:33:33;;;;;;;0.10;0.10;;;18.80;99.90;;;;;;5055081;28;20112;-76
2022/06/08 07:36:00;;;;;;;0.10;0.10;;;18.60;99.90;;;;;;5073263;28;20045;-76
2022/06/08 07:38:26;;;;;;;0.00;0.00;;;18.50;99.90;;;;;;5072793;28;20033;-76
2022/06/08 07:40:52;;;;;;;0.10;0.10;;;18.30;99.90;;;;;;5072912;28;20028;-76
2022/06/08 07:43:19;;;;;;;0.10;0.10;;;18.20;99.90;;;;;;5054833;28;20017;-76
2022/06/08 07:45:45;;;;;;;0.10;0.10;;;18.00;99.90;;;;;;5038058;28;20033;-76
2022/06/08 07:50:55;;;;;;;0.10;0.10;;;18.30;99.90;;;;;;5063324;28;20055;-76
2022/06/08 07:53:21;;;;;;;0.10;0.10;;;18.90;99.90;;;;;;5054187;28;20059;-76
2022/06/08 07:55:47;;;;;;;0.00;0.00;;;19.20;99.90;;;;;;5066830;28;20492;-76
2022/06/08 07:58:13;;;;;;;0.00;0.00;;;19.30;99.90;;;;;;5062643;28;20032;-76
2022/06/08 08:00:43;;;;;;;0.10;0.10;;;19.20;99.90;;;;;;5052622;28;20028;-76
2022/06/08 08:03:10;;;;;;;0.10;0.10;;;19.00;99.90;;;;;;5072529;28;20103;-75
2022/06/08 08:05:36;;;;;;;0.10;0.10;;;18.90;99.90;;;;;;5053644;28;20031;-76
2022/06/08 08:08:02;;;;;;;0.00;0.00;;;18.90;99.90;;;;;;5054164;28;20020;-76
2022/06/08 08:10:28;;;;;;;0.03;0.03;;;18.90;99.90;;;;;;5054820;28;20070;-76
2022/06/08 08:12:55;;;;;;;0.10;0.10;;;19.00;99.90;;;;;;5054192;28;20032;-76
2022/06/08 08:15:23;;;;;;;0.10;0.10;;;19.30;99.90;;;;;;5037524;28;20443;-76
2022/06/08 08:17:48;;;;;;;0.08;0.08;;;20.00;99.90;;;;;;5071725;28;20035;-76
2022/06/08 08:20:18;;;;;;;0.10;0.10;;;20.10;99.60;;;;;;5054224;28;20040;-76
2022/06/08 08:22:46;;;;;;;0.05;0.05;;;20.00;98.50;;;;;;5054055;28;20111;-76
2022/06/08 08:25:15;;;;;;;0.10;0.10;;;20.40;97.60;;;;;;5072000;28;20021;-76
2022/06/08 08:27:42;;;;;;;0.00;0.00;;;20.70;96.50;;;;;;5071906;28;20013;-76
2022/06/08 08:30:09;;;;;;;0.00;0.00;;;21.00;96.00;;;;;;5053826;28;20078;-76
2022/06/08 08:32:36;;;;;;;0.00;0.00;;;21.10;93.10;;;;;;5037603;28;20024;-77
2022/06/08 08:35:03;;;;;;;0.00;0.00;;;21.50;92.30;;;;;;5072986;28;20039;-76
2022/06/08 08:37:30;;;;;;;0.10;0.10;;;22.00;91.80;;;;;;5047348;28;20498;-76
2022/06/08 08:39:56;;;;;;;0.10;0.10;;;22.20;91.10;;;;;;5040855;28;20031;-76
2022/06/08 08:42:22;;;;;;;0.00;0.00;;;22.40;90.30;;;;;;5068558;28;20021;-76
2022/06/08 08:45:05;;;;;;;0.00;0.00;;;22.60;87.10;;;;;;5035467;28;20621;-76
2022/06/08 08:48:01;;;;;;;0.10;0.10;;;22.60;86.90;;;;;;5033896;28;20024;-76
2022/06/08 08:50:36;;;;;;;0.00;0.00;;;22.40;83.50;;;;;;5049922;28;20074;-76
2022/06/08 08:53:11;;;;;;;0.05;0.05;;;22.40;87.00;;;;;;5049552;28;20084;-76
2022/06/08 08:55:53;;;;;;;0.77;0.77;;;22.80;83.70;;;;;;5050118;28;20048;-76
2022/06/08 08:58:27;;;;;;;0.00;0.00;;;23.10;83.70;;;;;;5032788;28;20424;-76
2022/06/08 09:00:59;;;;;;;0.03;0.03;;;23.40;82.60;;;;;;5051307;28;20036;-76
2022/06/08 09:03:32;;;;;;;0.20;0.20;;;23.30;78.70;;;;;;5015680;28;20075;-76
2022/06/08 09:06:12;;;;;;;12.35;4.40;;;23.40;80.00;;;;;;5033812;28;20017;-76
2022/06/08 09:08:39;;;;;;;1.45;0.95;;;23.50;80.50;;;;;;5051623;28;20099;-76
2022/06/08 09:11:24;;;;;;;0.00;0.00;;;23.60;80.00;;;;;;5033602;28;20033;-76
2022/06/08 09:13:56;;;;;;;0.20;0.20;;;23.70;80.60;;;;;;5055487;28;20025;-76
2022/06/08 09:16:47;;;;;;;0.00;0.00;;;23.80;79.90;;;;;;5037649;28;20039;-76
2022/06/08 09:19:22;;;;;;;0.00;0.00;;;24.10;79.00;;;;;;5037207;28;20111;-76
2022/06/08 09:21:50;;;;;;;0.00;0.00;;;24.30;75.20;;;;;;5055413;28;20071;-76
2022/06/08 09:24:31;;;;;;;0.03;0.03;;;24.50;66.40;;;;;;5036530;28;20086;-76
2022/06/08 09:27:35;;;;;;;0.00;0.00;;;24.60;63.00;;;;;;5054241;28;20032;-76
2022/06/08 09:30:09;;;;;;;0.00;0.00;;;24.10;62.80;;;;;;4982476;28;20109;-77
2022/06/08 09:32:41;;;;;;;0.10;0.10;;;24.10;68.80;;;;;;5020107;28;20025;-76
2022/06/08 09:35:31;;;;;;;0.00;0.00;;;24.30;69.20;;;;;;5036374;28;20036;-76
2022/06/08 09:38:13;;;;;;;0.00;0.00;;;24.50;69.90;;;;;;5036010;28;20511;-76
2022/06/08 09:41:04;;;;;;;0.50;0.50;;;24.60;63.10;;;;;;5036100;28;20021;-76
2022/06/08 09:44:01;;;;;;;0.00;0.00;;;24.70;65.30;;;;;;5036193;28;20384;-76
2022/06/08 09:52:57;;;;;;;0.30;0.30;;;25.30;62.00;;;;;;5055222;28;20091;-76
2022/06/08 09:55:32;;;;;;;0.10;0.10;;;25.50;63.90;;;;;;5054967;28;20025;-76
2022/06/08 09:58:03;;;;;;;6.43;4.00;;;25.50;62.40;;;;;;5054596;28;20586;-78
2022/06/08 10:00:32;;;;;;;;;;;25.40;60.10;;;;;;5021212;28;20488;-77
2022/06/08 10:03:17;;;;;;;0.10;0.10;;;25.10;64.00;;;;;;5022903;28;20269;-77
2022/06/08 10:06:16;;;;;;;11.48;10.45;;;25.10;62.90;;;;;;5065280;28;20012;-77
2022/06/08 10:09:00;;;;;;;0.25;0.25;;;24.30;66.60;;;;;;5044421;28;20026;-77
2022/06/08 10:11:41;;;;;;;0.00;0.00;;;24.00;67.20;;;;;;5061347;28;20455;-77
2022/06/08 10:14:12;;;;;;;0.00;0.00;;;24.50;67.40;;;;;;5049664;28;20021;-77
2022/06/08 10:16:45;;;;;;;0.30;0.13;;;25.00;68.90;;;;;;5041862;28;20278;-77
2022/06/08 10:19:22;;;;;;;0.17;0.17;;;25.30;62.20;;;;;;5042345;28;20029;-77
2022/06/08 10:21:50;;;;;;;0.00;0.00;;;25.50;61.80;;;;;;5064994;28;20029;-77
2022/06/08 10:24:29;;;;;;;0.10;0.10;;;25.80;62.20;;;;;;5079289;28;20043;-77
2022/06/08 10:27:11;;;;;;;0.10;0.10;;;25.90;61.80;;;;;;5079121;28;20028;-77
2022/06/08 10:29:46;;;;;;;0.00;0.00;;;25.90;59.80;;;;;;5061315;28;20114;-77
2022/06/08 10:32:28;;;;;;;0.00;0.00;;;25.80;58.80;;;;;;5048022;28;20033;-77
2022/06/08 10:34:55;;;;;;;0.22;0.22;;;25.90;57.30;;;;;;5056097;28;20103;-77
2022/06/08 10:37:36;;;;;;;0.00;0.00;;;26.10;56.30;;;;;;5040409;28;20029;-77
2022/06/08 10:40:08;;;;;;;0.10;0.10;;;26.00;56.60;;;;;;5039548;28;20112;-77
2022/06/08 10:42:40;;;;;;;0.00;0.00;;;26.10;57.30;;;;;;5057267;28;20029;-77
2022/06/08 10:45:24;;;;;;;;;;;26.20;55.20;;;;;;5057070;28;20016;-77
2022/06/08 10:47:55;;;;;;;0.00;0.00;;;25.80;53.60;;;;;;5039276;28;19908;-77
2022/06/08 10:51:08;;;;;;;0.00;0.00;;;26.00;55.40;;;;;;5040910;28;20500;-77
2022/06/08 10:56:35;;;;;;;0.40;0.40;;;26.90;57.10;;;;;;5041241;28;20033;-77
2022/06/08 10:59:07;;;;;;;0.00;0.00;;;26.70;57.10;;;;;;5024814;28;20025;-77
2022/06/08 11:01:41;;;;;;;0.00;0.00;;;26.60;58.80;;;;;;5059788;28;20033;-77
2022/06/08 11:04:27;;;;;;;0.20;0.10;;;26.90;59.00;;;;;;5059670;28;20028;-77
2022/06/08 11:07:10;;;;;;;0.00;0.00;;;26.90;57.90;;;;;;5058712;28;20013;-77
2022/06/08 11:09:36;;;;;;;0.38;0.22;;;26.60;58.30;;;;;;5058896;28;20491;-77
2022/06/08 11:12:10;;;;;;;0.65;0.57;;;26.70;57.40;;;;;;5057601;28;20025;-77
2022/06/08 11:14:48;;;;;;;0.00;0.00;;;26.30;57.40;;;;;;5057733;28;20032;-77
2022/06/08 11:17:20;;;;;;;0.45;0.45;;;26.10;59.90;;;;;;5039465;28;20032;-77
2022/06/08 11:19:47;;;;;;;0.25;0.20;;;26.50;59.10;;;;;;5024860;28;20403;-77
2022/06/08 11:22:29;;;;;;;0.00;0.00;;;26.50;58.00;;;;;;5048726;28;20032;-77
2022/06/08 11:25:00;;;;;;;2.45;0.55;;;26.50;57.20;;;;;;5070688;28;20464;-77
2022/06/08 11:27:31;;;;;;;0.00;0.00;;;26.70;55.50;;;;;;5075856;28;20099;-77
2022/06/08 11:30:00;;;;;;;0.10;0.10;;;26.60;56.40;;;;;;5048224;28;20052;-77
2022/06/08 11:32:32;;;;;;;0.00;0.00;;;26.40;55.70;;;;;;5060061;28;20041;-77
2022/06/08 11:35:23;;;;;;;0.50;0.50;;;26.30;55.80;;;;;;5059449;28;20024;-77
2022/06/08 11:38:17;;;;;;;0.20;0.10;;;26.50;55.30;;;;;;5032103;28;20074;-77
2022/06/08 11:40:44;;;;;;;0.05;0.05;;;26.20;54.50;;;;;;5056663;28;20103;-77
2022/06/08 11:43:14;;;;;;;0.10;0.10;;;26.10;56.30;;;;;;5039173;28;20035;-77
2022/06/08 11:45:52;;;;;;;0.10;0.10;;;26.10;55.90;;;;;;5062006;28;20013;-77
2022/06/08 11:48:26;;;;;;;0.08;0.08;;;26.10;55.50;;;;;;5076210;28;20021;-78
2022/06/08 11:51:04;;;;;;;0.52;0.52;;;25.90;54.80;;;;;;5058880;28;20031;-77
2022/06/08 11:53:38;;;;;;;2.75;0.47;;;26.20;54.20;;;;;;5075740;28;20056;-77
2022/06/08 11:56:42;;;;;;;0.22;0.22;;;26.00;55.70;;;;;;5057371;28;20395;-77
2022/06/08 11:59:19;;;;;;;0.00;0.00;;;25.80;58.00;;;;;;5013214;28;20039;-77
2022/06/08 12:01:53;;;;;;;7.28;1.58;;;25.60;59.00;;;;;;5074001;28;20031;-78
2022/06/08 12:04:25;;;;;;;0.00;0.00;;;25.30;60.00;;;;;;5055431;28;20025;-76
2022/06/08 12:06:54;;;;;;;0.32;0.10;;;25.00;60.90;;;;;;5052117;28;20421;-76
2022/06/08 12:09:28;;;;;;;0.00;0.00;;;25.00;61.80;;;;;;5052399;28;20029;-76
2022/06/08 12:11:59;;;;;;;0.25;0.25;;;25.10;59.60;;;;;;5052420;28;20059;-76
2022/06/08 12:14:25;;;;;;;;;;;24.70;61.70;;;;;;5052805;28;20420;-76
2022/06/08 12:16:59;;;;;;;0.00;0.00;;;24.90;62.50;;;;;;5051561;28;20000;-76
2022/06/08 12:19:30;;;;;;;0.08;0.08;;;25.10;61.80;;;;;;5034492;28;20435;-76
2022/06/08 12:22:14;;;;;;;0.00;0.00;;;25.30;60.90;;;;;;5034394;28;20032;-76
2022/06/08 12:24:40;;;;;;;0.00;0.00;;;25.40;59.20;;;;;;5052064;28;20075;-76
2022/06/08 12:27:18;;;;;;;3.55;0.35;;;25.30;59.30;;;;;;5051882;28;20416;-76
2022/06/08 12:29:52;;;;;;;0.00;0.00;;;24.70;59.50;;;;;;5034327;28;20104;-77
2022/06/08 12:32:48;;;;;;;0.00;0.00;;;24.50;62.80;;;;;;5052384;28;20025;-76
2022/06/08 12:35:26;;;;;;;0.00;0.00;;;24.50;61.80;;;;;;5034114;28;20489;-76
2022/06/08 12:38:18;;;;;;;0.00;0.00;;;24.70;62.60;;;;;;5046458;28;20017;-76
2022/06/08 12:41:09;;;;;;;0.00;0.00;;;24.80;59.80;;;;;;5072113;28;20020;-77
2022/06/08 12:44:06;;;;;;;0.00;0.00;;;24.60;59.80;;;;;;5052585;28;20070;-76
2022/06/08 12:46:35;;;;;;;0.00;0.00;;;24.50;59.80;;;;;;5042791;28;20036;-76
2022/06/08 12:49:22;;;;;;;0.00;0.00;;;24.10;59.50;;;;;;5053892;28;20074;-76
2022/06/08 12:51:54;;;;;;;0.00;0.00;;;24.30;60.80;;;;;;5071752;28;20083;-76
2022/06/08 12:54:29;;;;;;;0.73;0.38;;;24.10;61.20;;;;;;5053837;28;20024;-75
2022/06/08 12:57:18;;;;;;;0.10;0.10;;;24.00;61.50;;;;;;5064808;28;20029;-75
2022/06/08 12:59:46;;;;;;;0.00;0.00;;;23.70;62.90;;;;;;5033401;28;20078;-76
2022/06/08 13:02:18;;;;;;;0.00;0.00;;;23.90;65.00;;;;;;5051078;28;20029;-75
2022/06/08 13:04:45;;;;;;;0.00;0.00;;;24.10;61.80;;;;;;5062978;28;20358;-76
2022/06/08 13:07:20;;;;;;;0.00;0.00;;;24.00;62.20;;;;;;5043059;28;20021;-76
2022/06/08 13:09:47;;;;;;;0.22;0.22;;;24.20;61.30;;;;;;5033728;28;20057;-76
2022/06/08 13:12:21;;;;;;;0.00;0.00;;;24.30;62.60;;;;;;5016011;28;20017;-76
2022/06/08 13:14:47;;;;;;;0.00;0.00;;;24.40;62.50;;;;;;5051296;28;20017;-76
2022/06/08 13:17:13;;;;;;;0.00;0.00;;;24.20;63.50;;;;;;5033253;28;20085;-76
2022/06/08 13:19:40;;;;;;;0.00;0.00;;;24.30;62.60;;;;;;5017051;28;20021;-76
2022/06/08 13:22:06;;;;;;;0.10;0.10;;;24.40;62.40;;;;;;5051444;28;20029;-77
2022/06/08 13:24:32;;;;;;;0.00;0.00;;;24.20;62.20;;;;;;5033394;28;20477;-76
2022/06/08 13:26:57;;;;;;;0.30;0.30;;;24.00;64.60;;;;;;5033296;28;20021;-76
2022/06/08 13:29:23;;;;;;;0.00;0.00;;;24.10;64.40;;;;;;5033252;28;20028;-76